createdAt,value
2023-04-22T00:02:12.575Z,7.51
2023-04-22T00:05:14.037Z,7.46
2023-04-22T00:08:16.382Z,7.41
2023-04-22T00:11:16.435Z,7.37
2023-04-22T00:14:16.606Z,7.32
2023-04-22T00:17:16.404Z,7.26
2023-04-22T00:20:17.443Z,7.21
2023-04-22T00:23:17.422Z,7.15
2023-04-22T00:26:17.424Z,7.10
2023-04-22T00:29:17.399Z,7.05
2023-04-22T00:32:17.487Z,7.00
2023-04-22T00:35:17.430Z,6.94
2023-04-22T00:38:17.480Z,6.90
2023-04-22T00:41:17.465Z,6.86
2023-04-22T00:44:17.480Z,6.82
2023-04-22T00:47:17.578Z,6.79
2023-04-22T00:50:18.472Z,6.77
2023-04-22T00:53:18.532Z,6.75
2023-04-22T00:56:18.423Z,6.72
2023-04-22T00:59:18.801Z,6.69
2023-04-22T01:02:18.621Z,6.68
2023-04-22T01:05:18.473Z,6.66
2023-04-22T01:08:18.561Z,6.63
2023-04-22T01:11:18.524Z,6.58
2023-04-22T01:14:19.545Z,6.54
2023-04-22T01:17:20.560Z,6.50
2023-04-22T01:20:20.541Z,6.47
2023-04-22T01:23:22.521Z,6.45
2023-04-22T01:26:22.585Z,6.43
2023-04-22T01:29:22.776Z,6.41
2023-04-22T01:32:22.577Z,6.38
2023-04-22T01:35:22.595Z,6.33
2023-04-22T01:38:23.607Z,6.29
2023-04-22T01:41:23.573Z,6.26
2023-04-22T01:44:25.567Z,6.23
2023-04-22T01:47:25.558Z,6.21
2023-04-22T01:50:25.587Z,6.18
2023-04-22T01:53:25.555Z,6.16
2023-04-22T01:56:25.635Z,6.13
2023-04-22T01:59:25.736Z,6.11
2023-04-22T02:02:25.737Z,6.09
2023-04-22T02:05:25.709Z,6.06
2023-04-22T02:08:25.626Z,6.04
2023-04-22T02:11:27.647Z,6.01
2023-04-22T02:14:27.642Z,5.98
2023-04-22T02:17:29.630Z,5.95
2023-04-22T02:20:29.651Z,5.91
2023-04-22T02:23:31.638Z,5.89
2023-04-22T02:26:31.647Z,5.86
2023-04-22T02:29:31.618Z,5.85
2023-04-22T02:32:32.719Z,5.85
2023-04-22T02:35:32.802Z,5.84
2023-04-22T02:38:32.693Z,5.82
2023-04-22T02:41:33.646Z,5.82
2023-04-22T02:44:27.756Z,5.82
2023-04-22T02:47:27.706Z,5.82
2023-04-22T02:50:27.678Z,5.83
2023-04-22T02:53:29.683Z,5.84
2023-04-22T02:56:29.697Z,5.84
2023-04-22T02:59:30.682Z,5.85
2023-04-22T03:02:30.830Z,5.84
2023-04-22T03:05:37.676Z,5.85
2023-04-22T03:08:37.721Z,5.86
2023-04-22T03:11:40.225Z,5.87
2023-04-22T03:14:40.721Z,5.89
2023-04-22T03:17:40.778Z,5.93
2023-04-22T03:20:40.792Z,5.98
2023-04-22T03:23:40.746Z,6.02
2023-04-22T03:26:40.778Z,6.09
2023-04-22T03:29:40.930Z,6.16
2023-04-22T03:32:41.822Z,6.24
2023-04-22T03:35:50.750Z,6.33
2023-04-22T03:38:50.746Z,6.42
2023-04-22T03:41:52.722Z,6.52
2023-04-22T03:44:53.789Z,6.64
2023-04-22T03:47:54.810Z,6.76
2023-04-22T03:51:01.767Z,6.88
2023-04-22T03:54:02.879Z,7.00
2023-04-22T03:57:05.789Z,7.11
2023-04-22T04:00:06.767Z,7.23
2023-04-22T04:03:11.003Z,7.34
2023-04-22T04:06:05.047Z,7.43
2023-04-22T04:09:04.852Z,7.52
2023-04-22T04:12:05.787Z,7.62
2023-04-22T04:15:08.809Z,7.72
2023-04-22T04:18:08.899Z,7.83
2023-04-22T04:21:09.857Z,7.93
2023-04-22T04:24:13.890Z,8.04
2023-04-22T04:27:14.804Z,8.14
2023-04-22T04:30:17.859Z,8.24
2023-04-22T04:33:22.849Z,8.35
2023-04-22T04:36:22.871Z,8.46
2023-04-22T04:39:34.861Z,8.65
2023-04-22T04:42:36.857Z,8.90
2023-04-22T04:45:34.868Z,9.15
2023-04-22T04:48:20.938Z,9.39
2023-04-22T04:51:25.915Z,9.61
2023-04-22T04:54:25.888Z,9.83
2023-04-22T04:57:25.940Z,10.05
2023-04-22T05:00:25.984Z,10.20
2023-04-22T05:03:26.079Z,10.27
2023-04-22T05:06:25.924Z,10.31
2023-04-22T05:09:28.948Z,10.36
2023-04-22T05:12:28.928Z,10.46
2023-04-22T05:15:28.975Z,10.59
2023-04-22T05:18:28.914Z,10.77
2023-04-22T05:21:31.987Z,11.27
2023-04-22T05:24:31.896Z,12.19
2023-04-22T05:27:31.971Z,13.20
2023-04-22T05:30:32.010Z,13.99
2023-04-22T05:33:24.969Z,14.63
2023-04-22T05:36:04.168Z,15.15
2023-04-22T05:38:50.060Z,15.52
2023-04-22T05:41:36.039Z,16.00
2023-04-22T05:44:36.006Z,16.44
2023-04-22T05:47:36.114Z,16.83
2023-04-22T05:50:35.994Z,17.13
2023-04-22T05:53:37.009Z,17.36
2023-04-22T05:56:38.106Z,17.54
2023-04-22T05:59:38.319Z,17.83
2023-04-22T06:02:39.166Z,18.05
2023-04-22T06:05:39.058Z,18.24
2023-04-22T06:08:40.027Z,18.46
2023-04-22T06:11:40.032Z,18.49
2023-04-22T06:14:40.049Z,18.65
2023-04-22T06:17:40.070Z,18.79
2023-04-22T06:20:42.029Z,18.94
2023-04-22T06:23:43.036Z,19.16
2023-04-22T06:26:44.074Z,19.43
2023-04-22T06:29:44.105Z,19.58
2023-04-22T06:32:44.235Z,19.77
2023-04-22T06:35:44.067Z,19.85
2023-04-22T06:38:44.110Z,20.06
2023-04-22T06:41:53.088Z,20.06
2023-04-22T06:45:19.129Z,19.82
2023-04-22T06:48:37.160Z,19.63
2023-04-22T06:51:55.154Z,19.44
2023-04-22T06:54:56.185Z,19.12
2023-04-22T06:58:24.162Z,18.80
2023-04-22T07:01:25.256Z,18.59
2023-04-22T07:04:25.256Z,18.42
2023-04-22T07:07:27.446Z,18.12
2023-04-22T07:10:27.259Z,17.78
2023-04-22T07:13:53.200Z,17.52
2023-04-22T07:16:53.425Z,17.32
2023-04-22T07:19:53.191Z,17.24
2023-04-22T07:22:53.375Z,17.18
2023-04-22T07:25:53.276Z,17.11
2023-04-22T07:28:54.222Z,17.13
2023-04-22T07:31:55.328Z,17.17
2023-04-22T07:34:56.433Z,17.17
2023-04-22T07:37:56.372Z,17.23
2023-04-22T07:40:57.220Z,17.21
2023-04-22T07:43:59.521Z,17.07
2023-04-22T07:47:00.746Z,17.07
2023-04-22T07:50:01.478Z,17.10
2023-04-22T07:53:02.569Z,17.10
2023-04-22T07:56:03.310Z,17.15
2023-04-22T07:59:03.264Z,17.30
2023-04-22T08:02:03.340Z,17.52
2023-04-22T08:05:03.283Z,17.74
2023-04-22T08:08:04.271Z,18.05
2023-04-22T08:11:04.269Z,18.24
2023-04-22T08:14:04.285Z,18.43
2023-04-22T08:17:06.343Z,18.69
2023-04-22T08:20:07.939Z,19.04
2023-04-22T08:23:08.290Z,19.61
2023-04-22T08:26:08.635Z,20.19
2023-04-22T08:29:08.279Z,20.57
2023-04-22T08:32:08.327Z,20.83
2023-04-22T08:35:09.312Z,21.07
2023-04-22T08:38:09.371Z,21.44
2023-04-22T08:41:09.351Z,21.48
2023-04-22T08:44:09.340Z,21.54
2023-04-22T08:47:09.511Z,21.71
2023-04-22T08:50:09.349Z,21.99
2023-04-22T08:53:09.410Z,22.30
2023-04-22T08:56:11.462Z,22.47
2023-04-22T08:59:14.354Z,22.84
2023-04-22T09:02:14.527Z,23.32
2023-04-22T09:05:14.451Z,23.75
2023-04-22T09:08:14.588Z,23.99
2023-04-22T09:11:10.478Z,24.16
2023-04-22T09:13:58.428Z,24.45
2023-04-22T09:17:01.441Z,24.54
2023-04-22T09:20:11.376Z,24.60
2023-04-22T09:23:11.418Z,24.39
2023-04-22T09:26:11.438Z,24.26
2023-04-22T09:29:15.434Z,24.55
2023-04-22T09:32:21.542Z,24.66
2023-04-22T09:35:21.523Z,24.80
2023-04-22T09:38:22.458Z,25.01
2023-04-22T09:41:22.427Z,24.91
2023-04-22T09:44:17.441Z,25.01
2023-04-22T09:47:17.511Z,25.24
2023-04-22T09:50:17.494Z,25.37
2023-04-22T09:53:20.483Z,25.58
2023-04-22T09:56:20.443Z,25.76
2023-04-22T09:59:21.996Z,25.89
2023-04-22T10:02:22.501Z,25.93
2023-04-22T10:05:24.194Z,25.94
2023-04-22T10:08:24.504Z,26.08
2023-04-22T10:11:24.629Z,26.31
2023-04-22T10:14:24.548Z,26.44
2023-04-22T10:17:24.493Z,26.38
2023-04-22T10:20:25.486Z,26.48
2023-04-22T10:23:28.532Z,26.59
2023-04-22T10:26:48.543Z,26.81
2023-04-22T10:29:49.518Z,27.09
2023-04-22T10:32:50.760Z,27.46
2023-04-22T10:35:50.618Z,27.72
2023-04-22T10:38:51.653Z,27.64
2023-04-22T10:41:44.662Z,27.30
2023-04-22T10:44:57.626Z,26.98
2023-04-22T10:47:58.676Z,26.42
2023-04-22T10:51:00.640Z,25.56
2023-04-22T10:54:00.582Z,24.77
2023-04-22T10:57:18.588Z,24.07
2023-04-22T11:00:41.759Z,23.23
2023-04-22T11:03:47.667Z,23.04
2023-04-22T11:06:47.701Z,23.36
2023-04-22T11:09:47.620Z,23.29
2023-04-22T11:12:50.598Z,22.97
2023-04-22T11:15:54.652Z,22.66
2023-04-22T11:18:54.607Z,22.52
2023-04-22T11:21:56.692Z,22.53
2023-04-22T11:25:06.677Z,22.58
2023-04-22T11:28:06.640Z,22.41
2023-04-22T11:31:06.663Z,22.03
2023-04-22T11:34:06.623Z,21.70
2023-04-22T11:37:06.696Z,21.53
2023-04-22T11:43:09.700Z,21.08
2023-04-22T11:46:10.704Z,20.88
2023-04-22T11:49:28.720Z,20.66
2023-04-22T11:52:28.724Z,20.79
2023-04-22T11:55:21.681Z,21.05
2023-04-22T11:58:02.899Z,21.23
2023-04-22T12:00:51.685Z,21.49
2023-04-22T12:03:38.902Z,21.92
2023-04-22T12:06:38.783Z,22.19
2023-04-22T12:09:39.948Z,22.35
2023-04-22T12:12:33.784Z,22.06
2023-04-22T12:15:21.699Z,21.92
2023-04-22T12:18:21.735Z,22.20
2023-04-22T12:21:21.817Z,22.65
2023-04-22T12:24:21.730Z,22.80
2023-04-22T12:27:21.744Z,22.83
2023-04-22T12:30:21.762Z,23.06
2023-04-22T12:33:21.742Z,23.30
2023-04-22T12:36:22.937Z,23.27
2023-04-22T12:39:23.806Z,23.35
2023-04-22T12:42:23.780Z,23.25
2023-04-22T12:45:23.768Z,23.22
2023-04-22T12:48:16.793Z,22.96
2023-04-22T12:50:56.727Z,22.59
2023-04-22T12:53:43.857Z,22.43
2023-04-22T12:56:24.167Z,22.30
2023-04-22T12:59:10.230Z,22.45
2023-04-22T13:01:58.066Z,22.47
2023-04-22T13:04:51.833Z,22.62
2023-04-22T13:07:38.849Z,22.59
2023-04-22T13:10:38.829Z,22.52
2023-04-22T13:13:47.809Z,22.51
2023-04-22T13:16:47.846Z,22.52
2023-04-22T13:19:47.829Z,22.25
2023-04-22T13:22:47.905Z,21.94
2023-04-22T13:25:48.865Z,21.92
2023-04-22T13:28:50.862Z,21.97
2023-04-22T13:31:51.877Z,22.00
2023-04-22T13:34:45.888Z,22.09
2023-04-22T13:37:25.965Z,22.13
2023-04-22T13:40:11.855Z,22.14
2023-04-22T13:43:11.895Z,22.07
2023-04-22T13:46:12.004Z,21.91
2023-04-22T13:49:11.922Z,21.69
2023-04-22T13:52:11.947Z,21.45
2023-04-22T13:55:12.115Z,21.29
2023-04-22T13:58:11.907Z,21.28
2023-04-22T14:01:11.980Z,21.28
2023-04-22T14:04:05.062Z,21.18
2023-04-22T14:07:04.925Z,21.19
2023-04-22T14:10:04.904Z,21.18
2023-04-22T14:13:04.977Z,21.32
2023-04-22T14:16:05.060Z,21.38
2023-04-22T14:19:04.937Z,21.26
2023-04-22T14:22:05.936Z,21.04
2023-04-22T14:25:05.956Z,20.88
2023-04-22T14:27:59.090Z,20.73
2023-04-22T14:30:59.010Z,20.58
2023-04-22T14:33:58.957Z,20.36
2023-04-22T14:36:59.186Z,20.20
2023-04-22T14:40:00.178Z,20.05
2023-04-22T14:43:00.939Z,19.84
2023-04-22T14:46:01.106Z,19.71
2023-04-22T14:49:00.980Z,19.59
2023-04-22T14:52:01.034Z,19.53
2023-04-22T14:55:08.805Z,19.43
2023-04-22T14:58:16.026Z,19.36
2023-04-22T15:01:17.093Z,19.24
2023-04-22T15:04:19.100Z,19.09
2023-04-22T15:07:19.030Z,18.93
2023-04-22T15:10:20.140Z,18.85
2023-04-22T15:13:20.069Z,18.85
2023-04-22T15:16:20.213Z,18.85
2023-04-22T15:19:20.108Z,18.77
2023-04-22T15:22:20.175Z,18.68
2023-04-22T15:25:20.036Z,18.59
2023-04-22T15:28:20.120Z,18.54
2023-04-22T15:31:22.088Z,18.47
2023-04-22T15:34:22.097Z,18.40
2023-04-22T15:37:23.458Z,18.36
2023-04-22T15:40:27.412Z,18.32
2023-04-22T15:43:27.117Z,18.30
2023-04-22T15:46:27.244Z,18.33
2023-04-22T15:49:27.127Z,18.34
2023-04-22T15:52:27.130Z,18.31
2023-04-22T15:55:27.090Z,18.19
2023-04-22T15:58:28.989Z,18.03
2023-04-22T16:01:31.149Z,17.83
2023-04-22T16:04:34.301Z,17.71
2023-04-22T16:07:34.145Z,17.56
2023-04-22T16:10:34.171Z,17.45
2023-04-22T16:13:34.142Z,17.35
2023-04-22T16:16:35.201Z,17.22
2023-04-22T16:19:35.141Z,17.13
2023-04-22T16:22:35.236Z,17.05
2023-04-22T16:25:35.332Z,16.92
2023-04-22T16:28:37.185Z,16.78
2023-04-22T16:31:37.247Z,16.66
2023-04-22T16:34:37.171Z,16.53
2023-04-22T16:37:37.184Z,16.43
2023-04-22T16:40:37.203Z,16.35
2023-04-22T16:43:39.082Z,16.28
2023-04-22T16:46:40.351Z,16.19
2023-04-22T16:49:40.654Z,16.12
2023-04-22T16:52:44.240Z,16.03
2023-04-22T16:55:44.239Z,15.95
2023-04-22T16:58:44.193Z,15.86
2023-04-22T17:01:47.308Z,15.77
2023-04-22T17:04:47.228Z,15.70
2023-04-22T17:07:47.359Z,15.60
2023-04-22T17:10:44.362Z,15.51
2023-04-22T17:13:45.526Z,15.39
2023-04-22T17:16:45.273Z,15.31
2023-04-22T17:19:45.293Z,15.24
2023-04-22T17:22:47.278Z,15.19
2023-04-22T17:25:48.277Z,15.13
2023-04-22T17:28:48.417Z,15.09
2023-04-22T17:31:48.375Z,15.07
2023-04-22T17:34:49.290Z,15.04
2023-04-22T17:37:50.414Z,14.99
2023-04-22T17:40:51.272Z,14.93
2023-04-22T17:43:51.330Z,14.84
2023-04-22T17:46:52.424Z,14.77
2023-04-22T17:49:52.378Z,14.69
2023-04-22T17:52:55.369Z,14.64
2023-04-22T17:55:56.464Z,14.58
2023-04-22T17:58:57.342Z,14.52
2023-04-22T18:01:59.632Z,14.48
2023-04-22T18:04:55.573Z,14.45
2023-04-22T18:07:55.365Z,14.42
2023-04-22T18:10:55.818Z,14.40
2023-04-22T18:13:57.370Z,14.39
2023-04-22T18:16:58.419Z,14.39
2023-04-22T18:20:14.003Z,14.37
2023-04-22T18:23:19.541Z,14.33
2023-04-22T18:26:19.356Z,14.30
2023-04-22T18:29:19.405Z,14.29
2023-04-22T18:32:19.470Z,14.28
2023-04-22T18:35:21.617Z,14.26
2023-04-22T18:38:21.393Z,14.25
2023-04-22T18:41:21.556Z,14.23
2023-04-22T18:44:21.437Z,14.22
2023-04-22T18:47:22.678Z,14.19
2023-04-22T18:50:22.493Z,14.16
2023-04-22T18:53:22.451Z,14.14
2023-04-22T18:56:22.702Z,14.12
2023-04-22T18:59:22.520Z,14.11
2023-04-22T19:02:23.605Z,14.09
2023-04-22T19:05:23.445Z,14.06
2023-04-22T19:08:23.551Z,14.03
2023-04-22T19:11:23.484Z,14.02
2023-04-22T19:14:24.487Z,14.00
2023-04-22T19:17:18.529Z,13.99
2023-04-22T19:20:04.597Z,13.95
2023-04-22T19:23:04.555Z,13.91
2023-04-22T19:26:04.587Z,13.90
2023-04-22T19:29:04.486Z,13.89
2023-04-22T19:32:04.556Z,13.88
2023-04-22T19:35:06.501Z,13.83
2023-04-22T19:38:08.687Z,13.76
2023-04-22T19:41:08.536Z,13.71
2023-04-22T19:44:08.547Z,13.68
2023-04-22T19:47:09.503Z,13.64
2023-04-22T19:50:09.516Z,13.61
2023-04-22T19:53:04.808Z,13.58
2023-04-22T19:56:04.882Z,13.55
2023-04-22T19:59:04.567Z,13.52
2023-04-22T20:02:08.775Z,13.49
2023-04-22T20:05:11.567Z,13.47
2023-04-22T20:08:11.546Z,13.44
2023-04-22T20:11:11.571Z,13.42
2023-04-22T20:14:13.560Z,13.39
2023-04-22T20:17:13.562Z,13.36
2023-04-22T20:20:14.614Z,13.35
2023-04-22T20:23:19.945Z,13.32
2023-04-22T20:26:19.655Z,13.28
2023-04-22T20:29:19.623Z,13.25
2023-04-22T20:32:19.661Z,13.22
2023-04-22T20:35:20.729Z,13.17
2023-04-22T20:38:21.672Z,13.14
2023-04-22T20:41:21.659Z,13.11
2023-04-22T20:44:24.705Z,13.08
2023-04-22T20:47:25.645Z,13.06
2023-04-22T20:50:28.814Z,13.03
2023-04-22T20:53:30.622Z,13.00
2023-04-22T20:56:31.745Z,12.97
2023-04-22T20:59:31.697Z,12.95
2023-04-22T21:02:32.872Z,12.93
2023-04-22T21:05:26.976Z,12.90
2023-04-22T21:08:32.642Z,12.86
2023-04-22T21:11:32.719Z,12.83
2023-04-22T21:14:32.697Z,12.81
2023-04-22T21:17:32.806Z,12.79
2023-04-22T21:20:33.741Z,12.76
2023-04-22T21:23:34.738Z,12.73
2023-04-22T21:26:34.679Z,12.72
2023-04-22T21:29:34.809Z,12.70
2023-04-22T21:32:35.731Z,12.68
2023-04-22T21:35:35.767Z,12.67
2023-04-22T21:38:35.698Z,12.66
2023-04-22T21:41:35.709Z,12.64
2023-04-22T21:44:35.755Z,12.61
2023-04-22T21:47:35.892Z,12.57
2023-04-22T21:50:36.902Z,12.54
2023-04-22T21:53:36.728Z,12.52
2023-04-22T21:56:39.802Z,12.49
2023-04-22T21:59:39.732Z,12.46
2023-04-22T22:02:41.807Z,12.43
2023-04-22T22:05:41.775Z,12.40
2023-04-22T22:08:41.867Z,12.37
2023-04-22T22:11:43.895Z,12.34
2023-04-22T22:14:44.793Z,12.30
2023-04-22T22:17:46.041Z,12.27
2023-04-22T22:20:45.833Z,12.24
2023-04-22T22:23:45.908Z,12.19
2023-04-22T22:26:46.850Z,12.15
2023-04-22T22:29:46.869Z,12.10
2023-04-22T22:32:49.338Z,12.06
2023-04-22T22:35:49.807Z,12.03
2023-04-22T22:38:50.871Z,12.00
2023-04-22T22:41:50.815Z,11.97
2023-04-22T22:44:53.858Z,11.93
2023-04-22T22:47:57.940Z,11.90
2023-04-22T22:50:57.839Z,11.87
2023-04-22T22:53:57.944Z,11.84
2023-04-22T22:56:57.983Z,11.81
2023-04-22T23:00:00.886Z,11.79
2023-04-22T23:03:01.999Z,11.78
2023-04-22T23:06:02.882Z,11.77
2023-04-22T23:09:02.945Z,11.75
2023-04-22T23:12:02.886Z,11.74
2023-04-22T23:15:02.988Z,11.73
2023-04-22T23:17:55.934Z,11.70
2023-04-22T23:20:55.940Z,11.68
2023-04-22T23:23:55.915Z,11.66
2023-04-22T23:26:55.954Z,11.64
2023-04-22T23:29:56.956Z,11.61
2023-04-22T23:32:57.988Z,11.60
2023-04-22T23:35:57.929Z,11.58
2023-04-22T23:38:58.172Z,11.56
2023-04-22T23:41:58.041Z,11.54
2023-04-22T23:44:57.990Z,11.52
2023-04-22T23:47:58.118Z,11.50
2023-04-22T23:50:58.002Z,11.50
2023-04-22T23:53:58.023Z,11.49
2023-04-22T23:56:58.093Z,11.48
2023-04-22T23:59:58.013Z,11.47
